sensor_id;sensor_type;location;lat;lon;timestamp;P1;durP1;ratioP1;P2;durP2;ratioP2
17261;SDS011;9873;52.236;21.002;2022-07-22T00:02:49;5.50;;;2.80;;
17261;SDS011;9873;52.236;21.002;2022-07-22T00:12:55;4.57;;;3.00;;
17261;SDS011;9873;52.236;21.002;2022-07-22T00:23:04;4.68;;;2.78;;
17261;SDS011;9873;52.236;21.002;2022-07-22T00:33:11;4.75;;;2.72;;
17261;SDS011;9873;52.236;21.002;2022-07-22T00:53:23;5.50;;;3.22;;
17261;SDS011;9873;52.236;21.002;2022-07-22T01:03:28;6.40;;;3.55;;
17261;SDS011;9873;52.236;21.002;2022-07-22T01:13:31;5.13;;;3.47;;
17261;SDS011;9873;52.236;21.002;2022-07-22T01:23:39;5.63;;;3.40;;
17261;SDS011;9873;52.236;21.002;2022-07-22T01:33:42;6.78;;;3.75;;
17261;SDS011;9873;52.236;21.002;2022-07-22T01:43:44;4.60;;;3.08;;
17261;SDS011;9873;52.236;21.002;2022-07-22T01:53:47;8.18;;;3.45;;
17261;SDS011;9873;52.236;21.002;2022-07-22T02:03:52;5.00;;;3.30;;
17261;SDS011;9873;52.236;21.002;2022-07-22T02:13:55;6.40;;;3.70;;
17261;SDS011;9873;52.236;21.002;2022-07-22T02:23:59;4.68;;;3.40;;
17261;SDS011;9873;52.236;21.002;2022-07-22T02:34:10;5.45;;;3.58;;
17261;SDS011;9873;52.236;21.002;2022-07-22T02:44:13;5.35;;;3.75;;
17261;SDS011;9873;52.236;21.002;2022-07-22T02:54:17;7.78;;;4.22;;
17261;SDS011;9873;52.236;21.002;2022-07-22T03:04:20;6.55;;;5.20;;
17261;SDS011;9873;52.236;21.002;2022-07-22T03:14:23;7.35;;;4.28;;
17261;SDS011;9873;52.236;21.002;2022-07-22T03:24:25;5.10;;;3.78;;
17261;SDS011;9873;52.236;21.002;2022-07-22T03:34:28;5.38;;;3.47;;
17261;SDS011;9873;52.236;21.002;2022-07-22T03:44:40;8.07;;;4.63;;
17261;SDS011;9873;52.236;21.002;2022-07-22T03:54:43;5.65;;;3.97;;
17261;SDS011;9873;52.236;21.002;2022-07-22T04:04:46;8.55;;;4.07;;
17261;SDS011;9873;52.236;21.002;2022-07-22T04:14:50;7.95;;;4.72;;
17261;SDS011;9873;52.236;21.002;2022-07-22T04:24:53;6.97;;;4.70;;
17261;SDS011;9873;52.236;21.002;2022-07-22T04:34:56;7.32;;;3.70;;
17261;SDS011;9873;52.236;21.002;2022-07-22T04:45:00;5.88;;;3.80;;
17261;SDS011;9873;52.236;21.002;2022-07-22T04:55:07;4.95;;;3.90;;
17261;SDS011;9873;52.236;21.002;2022-07-22T05:05:13;5.20;;;3.65;;
17261;SDS011;9873;52.236;21.002;2022-07-22T05:15:16;6.65;;;3.63;;
17261;SDS011;9873;52.236;21.002;2022-07-22T05:25:23;13.50;;;4.00;;
17261;SDS011;9873;52.236;21.002;2022-07-22T05:35:26;6.72;;;4.18;;
17261;SDS011;9873;52.236;21.002;2022-07-22T05:45:31;4.63;;;3.08;;
17261;SDS011;9873;52.236;21.002;2022-07-22T05:55:38;5.97;;;3.40;;
17261;SDS011;9873;52.236;21.002;2022-07-22T06:05:40;6.45;;;3.30;;
17261;SDS011;9873;52.236;21.002;2022-07-22T06:15:45;4.85;;;3.15;;
17261;SDS011;9873;52.236;21.002;2022-07-22T06:25:50;6.30;;;2.85;;
17261;SDS011;9873;52.236;21.002;2022-07-22T06:36:05;9.85;;;3.72;;
17261;SDS011;9873;52.236;21.002;2022-07-22T06:46:11;9.40;;;3.90;;
17261;SDS011;9873;52.236;21.002;2022-07-22T06:56:21;7.72;;;4.60;;
17261;SDS011;9873;52.236;21.002;2022-07-22T07:06:24;8.02;;;3.95;;
17261;SDS011;9873;52.236;21.002;2022-07-22T07:16:38;8.52;;;5.13;;
17261;SDS011;9873;52.236;21.002;2022-07-22T07:26:40;8.25;;;4.10;;
17261;SDS011;9873;52.236;21.002;2022-07-22T07:36:45;4.28;;;3.50;;
17261;SDS011;9873;52.236;21.002;2022-07-22T07:46:49;5.80;;;4.40;;
17261;SDS011;9873;52.236;21.002;2022-07-22T07:56:51;8.30;;;4.32;;
17261;SDS011;9873;52.236;21.002;2022-07-22T08:06:57;8.70;;;4.90;;
17261;SDS011;9873;52.236;21.002;2022-07-22T08:17:00;9.30;;;4.80;;
17261;SDS011;9873;52.236;21.002;2022-07-22T08:27:03;11.13;;;6.53;;
17261;SDS011;9873;52.236;21.002;2022-07-22T08:37:05;15.02;;;6.85;;
17261;SDS011;9873;52.236;21.002;2022-07-22T08:47:08;12.18;;;7.45;;
17261;SDS011;9873;52.236;21.002;2022-07-22T08:57:43;10.25;;;7.82;;
17261;SDS011;9873;52.236;21.002;2022-07-22T09:07:51;11.40;;;8.30;;
17261;SDS011;9873;52.236;21.002;2022-07-22T09:18:08;11.93;;;8.18;;
17261;SDS011;9873;52.236;21.002;2022-07-22T09:28:34;15.55;;;8.75;;
17261;SDS011;9873;52.236;21.002;2022-07-22T09:39:26;14.45;;;9.45;;
17261;SDS011;9873;52.236;21.002;2022-07-22T09:49:37;10.48;;;8.40;;
17261;SDS011;9873;52.236;21.002;2022-07-22T10:00:12;12.57;;;8.98;;
17261;SDS011;9873;52.236;21.002;2022-07-22T10:10:23;13.82;;;9.35;;
17261;SDS011;9873;52.236;21.002;2022-07-22T10:20:27;12.15;;;8.75;;
17261;SDS011;9873;52.236;21.002;2022-07-22T10:30:32;9.70;;;8.68;;
17261;SDS011;9873;52.236;21.002;2022-07-22T10:40:45;9.60;;;8.45;;
17261;SDS011;9873;52.236;21.002;2022-07-22T10:50:50;11.48;;;8.43;;
17261;SDS011;9873;52.236;21.002;2022-07-22T11:00:54;10.57;;;9.48;;
17261;SDS011;9873;52.236;21.002;2022-07-22T11:10:58;12.13;;;9.48;;
17261;SDS011;9873;52.236;21.002;2022-07-22T11:21:00;12.23;;;9.00;;
17261;SDS011;9873;52.236;21.002;2022-07-22T11:31:06;11.25;;;8.13;;
17261;SDS011;9873;52.236;21.002;2022-07-22T11:41:09;11.25;;;8.80;;
17261;SDS011;9873;52.236;21.002;2022-07-22T11:51:14;17.38;;;9.68;;
17261;SDS011;9873;52.236;21.002;2022-07-22T12:01:23;11.15;;;9.23;;
17261;SDS011;9873;52.236;21.002;2022-07-22T12:11:34;11.73;;;9.57;;
17261;SDS011;9873;52.236;21.002;2022-07-22T12:21:51;10.05;;;9.02;;
17261;SDS011;9873;52.236;21.002;2022-07-22T12:31:58;12.45;;;9.20;;
17261;SDS011;9873;52.236;21.002;2022-07-22T12:42:15;10.75;;;8.23;;
17261;SDS011;9873;52.236;21.002;2022-07-22T12:52:19;10.63;;;8.73;;
17261;SDS011;9873;52.236;21.002;2022-07-22T13:02:21;9.63;;;8.27;;
17261;SDS011;9873;52.236;21.002;2022-07-22T13:12:28;9.80;;;8.02;;
17261;SDS011;9873;52.236;21.002;2022-07-22T13:22:30;12.55;;;7.90;;
17261;SDS011;9873;52.236;21.002;2022-07-22T13:32:33;8.70;;;7.80;;
17261;SDS011;9873;52.236;21.002;2022-07-22T13:42:53;8.93;;;7.80;;
17261;SDS011;9873;52.236;21.002;2022-07-22T13:52:56;9.32;;;8.48;;
17261;SDS011;9873;52.236;21.002;2022-07-22T14:02:59;9.15;;;7.55;;
17261;SDS011;9873;52.236;21.002;2022-07-22T14:13:05;11.18;;;7.90;;
17261;SDS011;9873;52.236;21.002;2022-07-22T14:23:09;9.93;;;8.48;;
17261;SDS011;9873;52.236;21.002;2022-07-22T14:33:14;9.98;;;8.25;;
17261;SDS011;9873;52.236;21.002;2022-07-22T14:43:24;12.60;;;8.90;;
17261;SDS011;9873;52.236;21.002;2022-07-22T14:53:43;9.98;;;8.23;;
17261;SDS011;9873;52.236;21.002;2022-07-22T15:03:45;13.38;;;9.00;;
17261;SDS011;9873;52.236;21.002;2022-07-22T15:13:50;10.68;;;8.93;;
17261;SDS011;9873;52.236;21.002;2022-07-22T15:23:55;12.52;;;9.65;;
17261;SDS011;9873;52.236;21.002;2022-07-22T15:33:59;12.13;;;8.20;;
17261;SDS011;9873;52.236;21.002;2022-07-22T15:44:05;12.15;;;7.20;;
17261;SDS011;9873;52.236;21.002;2022-07-22T15:54:11;7.55;;;6.65;;
17261;SDS011;9873;52.236;21.002;2022-07-22T16:04:18;9.07;;;7.15;;
17261;SDS011;9873;52.236;21.002;2022-07-22T16:14:23;7.30;;;6.47;;
17261;SDS011;9873;52.236;21.002;2022-07-22T16:24:27;7.65;;;6.32;;
17261;SDS011;9873;52.236;21.002;2022-07-22T16:34:33;7.78;;;6.80;;
17261;SDS011;9873;52.236;21.002;2022-07-22T16:44:38;7.10;;;6.40;;
17261;SDS011;9873;52.236;21.002;2022-07-22T16:54:42;6.70;;;6.10;;
17261;SDS011;9873;52.236;21.002;2022-07-22T17:04:51;8.60;;;6.38;;
17261;SDS011;9873;52.236;21.002;2022-07-22T17:14:55;7.32;;;6.57;;
17261;SDS011;9873;52.236;21.002;2022-07-22T17:24:58;7.53;;;6.25;;
17261;SDS011;9873;52.236;21.002;2022-07-22T17:35:03;8.75;;;6.60;;
17261;SDS011;9873;52.236;21.002;2022-07-22T17:45:10;8.35;;;6.82;;
17261;SDS011;9873;52.236;21.002;2022-07-22T17:55:15;8.57;;;6.88;;
17261;SDS011;9873;52.236;21.002;2022-07-22T18:05:19;8.10;;;7.30;;
17261;SDS011;9873;52.236;21.002;2022-07-22T18:15:24;13.27;;;7.70;;
17261;SDS011;9873;52.236;21.002;2022-07-22T18:25:26;9.98;;;7.32;;
17261;SDS011;9873;52.236;21.002;2022-07-22T18:35:30;9.80;;;8.80;;
17261;SDS011;9873;52.236;21.002;2022-07-22T18:45:36;9.45;;;8.00;;
17261;SDS011;9873;52.236;21.002;2022-07-22T18:55:41;9.20;;;7.25;;
17261;SDS011;9873;52.236;21.002;2022-07-22T19:05:47;10.45;;;7.95;;
17261;SDS011;9873;52.236;21.002;2022-07-22T19:15:57;9.25;;;8.02;;
17261;SDS011;9873;52.236;21.002;2022-07-22T19:26:02;9.15;;;7.97;;
17261;SDS011;9873;52.236;21.002;2022-07-22T19:36:15;12.27;;;9.27;;
17261;SDS011;9873;52.236;21.002;2022-07-22T19:46:17;10.23;;;9.23;;
17261;SDS011;9873;52.236;21.002;2022-07-22T19:56:21;9.43;;;8.52;;
17261;SDS011;9873;52.236;21.002;2022-07-22T20:06:29;11.55;;;9.30;;
17261;SDS011;9873;52.236;21.002;2022-07-22T20:16:31;11.25;;;8.43;;
17261;SDS011;9873;52.236;21.002;2022-07-22T20:26:37;10.93;;;8.32;;
17261;SDS011;9873;52.236;21.002;2022-07-22T20:36:39;9.82;;;8.82;;
17261;SDS011;9873;52.236;21.002;2022-07-22T20:46:44;11.40;;;8.82;;
17261;SDS011;9873;52.236;21.002;2022-07-22T20:56:51;10.55;;;8.90;;
17261;SDS011;9873;52.236;21.002;2022-07-22T21:06:53;9.30;;;8.20;;
17261;SDS011;9873;52.236;21.002;2022-07-22T21:16:55;8.13;;;6.65;;
17261;SDS011;9873;52.236;21.002;2022-07-22T21:27:00;8.40;;;6.57;;
17261;SDS011;9873;52.236;21.002;2022-07-22T21:37:02;8.82;;;6.70;;
17261;SDS011;9873;52.236;21.002;2022-07-22T21:47:07;8.55;;;6.45;;
17261;SDS011;9873;52.236;21.002;2022-07-22T21:57:09;9.15;;;7.20;;
17261;SDS011;9873;52.236;21.002;2022-07-22T22:07:15;9.30;;;6.68;;
17261;SDS011;9873;52.236;21.002;2022-07-22T22:17:19;7.13;;;6.38;;
17261;SDS011;9873;52.236;21.002;2022-07-22T22:27:24;10.30;;;7.28;;
17261;SDS011;9873;52.236;21.002;2022-07-22T22:37:26;7.57;;;6.65;;
17261;SDS011;9873;52.236;21.002;2022-07-22T22:47:33;12.35;;;8.13;;
17261;SDS011;9873;52.236;21.002;2022-07-22T22:57:39;9.48;;;7.10;;
17261;SDS011;9873;52.236;21.002;2022-07-22T23:07:43;8.88;;;6.95;;
17261;SDS011;9873;52.236;21.002;2022-07-22T23:17:52;7.95;;;6.65;;
17261;SDS011;9873;52.236;21.002;2022-07-22T23:27:56;8.98;;;7.72;;
17261;SDS011;9873;52.236;21.002;2022-07-22T23:38:04;9.75;;;7.07;;
17261;SDS011;9873;52.236;21.002;2022-07-22T23:48:07;11.27;;;7.72;;
17261;SDS011;9873;52.236;21.002;2022-07-22T23:58:14;8.48;;;7.22;;
